sensor_id;sensor_type;location;lat;lon;timestamp;temperature;humidity
37530;DHT22;23374;52.758;6.872;2022-07-31T00:01:13;20.70;1.00
37530;DHT22;23374;52.758;6.872;2022-07-31T00:03:34;20.70;1.00
37530;DHT22;23374;52.758;6.872;2022-07-31T00:05:54;20.70;1.00
37530;DHT22;23374;52.758;6.872;2022-07-31T00:08:14;20.70;1.00
37530;DHT22;23374;52.758;6.872;2022-07-31T00:10:34;20.70;1.00
37530;DHT22;23374;52.758;6.872;2022-07-31T00:12:54;20.70;1.00
37530;DHT22;23374;52.758;6.872;2022-07-31T00:15:15;20.70;1.00
37530;DHT22;23374;52.758;6.872;2022-07-31T00:17:40;20.70;1.00
37530;DHT22;23374;52.758;6.872;2022-07-31T00:20:01;20.60;1.00
37530;DHT22;23374;52.758;6.872;2022-07-31T00:23:46;20.60;1.00
37530;DHT22;23374;52.758;6.872;2022-07-31T00:26:07;20.60;1.00
37530;DHT22;23374;52.758;6.872;2022-07-31T00:28:28;20.50;1.00
37530;DHT22;23374;52.758;6.872;2022-07-31T00:30:48;20.50;1.00
37530;DHT22;23374;52.758;6.872;2022-07-31T00:33:09;20.50;1.00
37530;DHT22;23374;52.758;6.872;2022-07-31T00:35:30;20.50;1.00
37530;DHT22;23374;52.758;6.872;2022-07-31T00:37:50;20.50;1.00
37530;DHT22;23374;52.758;6.872;2022-07-31T00:40:14;20.50;1.00
37530;DHT22;23374;52.758;6.872;2022-07-31T00:42:34;20.50;1.00
37530;DHT22;23374;52.758;6.872;2022-07-31T00:44:55;20.50;1.00
37530;DHT22;23374;52.758;6.872;2022-07-31T00:47:16;20.40;1.00
37530;DHT22;23374;52.758;6.872;2022-07-31T00:49:36;20.40;1.00
37530;DHT22;23374;52.758;6.872;2022-07-31T00:51:56;20.40;1.00
37530;DHT22;23374;52.758;6.872;2022-07-31T00:54:16;20.40;1.00
37530;DHT22;23374;52.758;6.872;2022-07-31T00:56:37;20.30;1.00
37530;DHT22;23374;52.758;6.872;2022-07-31T00:58:57;20.30;1.00
37530;DHT22;23374;52.758;6.872;2022-07-31T01:01:19;20.30;1.00
37530;DHT22;23374;52.758;6.872;2022-07-31T01:03:39;20.20;1.00
37530;DHT22;23374;52.758;6.872;2022-07-31T01:05:59;20.20;1.00
37530;DHT22;23374;52.758;6.872;2022-07-31T01:08:20;20.20;1.00
37530;DHT22;23374;52.758;6.872;2022-07-31T01:11:08;20.20;1.00
37530;DHT22;23374;52.758;6.872;2022-07-31T01:14:00;20.20;1.00
37530;DHT22;23374;52.758;6.872;2022-07-31T01:16:26;20.20;1.00
37530;DHT22;23374;52.758;6.872;2022-07-31T01:18:48;20.10;1.00
37530;DHT22;23374;52.758;6.872;2022-07-31T01:21:15;20.10;1.00
37530;DHT22;23374;52.758;6.872;2022-07-31T01:27:02;20.10;1.00
37530;DHT22;23374;52.758;6.872;2022-07-31T01:30:00;20.20;1.00
37530;DHT22;23374;52.758;6.872;2022-07-31T01:32:28;20.10;1.00
37530;DHT22;23374;52.758;6.872;2022-07-31T01:34:56;20.10;1.00
37530;DHT22;23374;52.758;6.872;2022-07-31T01:37:57;20.10;1.00
37530;DHT22;23374;52.758;6.872;2022-07-31T01:40:34;20.00;1.00
37530;DHT22;23374;52.758;6.872;2022-07-31T01:43:01;20.00;1.00
37530;DHT22;23374;52.758;6.872;2022-07-31T01:45:23;19.90;1.00
37530;DHT22;23374;52.758;6.872;2022-07-31T01:47:47;19.90;1.00
37530;DHT22;23374;52.758;6.872;2022-07-31T01:50:08;19.80;1.00
37530;DHT22;23374;52.758;6.872;2022-07-31T01:52:30;19.80;1.00
37530;DHT22;23374;52.758;6.872;2022-07-31T01:54:53;19.70;1.00
37530;DHT22;23374;52.758;6.872;2022-07-31T01:57:16;19.70;1.00
37530;DHT22;23374;52.758;6.872;2022-07-31T01:59:38;19.60;1.00
37530;DHT22;23374;52.758;6.872;2022-07-31T02:02:00;19.60;1.00
37530;DHT22;23374;52.758;6.872;2022-07-31T02:04:22;19.60;1.00
37530;DHT22;23374;52.758;6.872;2022-07-31T02:06:46;19.60;1.00
37530;DHT22;23374;52.758;6.872;2022-07-31T02:09:07;19.60;1.00
37530;DHT22;23374;52.758;6.872;2022-07-31T02:11:28;19.60;1.00
37530;DHT22;23374;52.758;6.872;2022-07-31T02:13:49;19.60;1.00
37530;DHT22;23374;52.758;6.872;2022-07-31T02:16:11;19.60;1.00
37530;DHT22;23374;52.758;6.872;2022-07-31T02:18:34;19.60;1.00
37530;DHT22;23374;52.758;6.872;2022-07-31T02:20:55;19.70;1.00
37530;DHT22;23374;52.758;6.872;2022-07-31T02:23:56;19.70;1.00
37530;DHT22;23374;52.758;6.872;2022-07-31T02:26:17;19.70;1.00
37530;DHT22;23374;52.758;6.872;2022-07-31T02:28:41;19.70;1.00
37530;DHT22;23374;52.758;6.872;2022-07-31T02:31:03;19.70;1.00
37530;DHT22;23374;52.758;6.872;2022-07-31T02:33:25;19.70;1.00
37530;DHT22;23374;52.758;6.872;2022-07-31T02:35:49;19.70;1.00
37530;DHT22;23374;52.758;6.872;2022-07-31T02:38:10;19.70;1.00
37530;DHT22;23374;52.758;6.872;2022-07-31T02:40:32;19.70;1.00
37530;DHT22;23374;52.758;6.872;2022-07-31T02:42:53;19.80;1.00
37530;DHT22;23374;52.758;6.872;2022-07-31T02:45:14;19.80;1.00
37530;DHT22;23374;52.758;6.872;2022-07-31T02:47:36;19.80;1.00
37530;DHT22;23374;52.758;6.872;2022-07-31T02:49:56;19.70;24.10
37530;DHT22;23374;52.758;6.872;2022-07-31T02:52:17;19.80;1.00
37530;DHT22;23374;52.758;6.872;2022-07-31T02:54:38;19.80;1.00
37530;DHT22;23374;52.758;6.872;2022-07-31T02:57:01;19.80;3.40
37530;DHT22;23374;52.758;6.872;2022-07-31T02:59:21;19.70;1.00
37530;DHT22;23374;52.758;6.872;2022-07-31T03:01:41;19.70;9.90
37530;DHT22;23374;52.758;6.872;2022-07-31T03:04:02;19.80;1.00
37530;DHT22;23374;52.758;6.872;2022-07-31T03:06:23;19.80;24.70
37530;DHT22;23374;52.758;6.872;2022-07-31T03:08:43;19.80;1.00
37530;DHT22;23374;52.758;6.872;2022-07-31T03:11:03;19.70;1.00
37530;DHT22;23374;52.758;6.872;2022-07-31T03:13:26;19.70;36.00
37530;DHT22;23374;52.758;6.872;2022-07-31T03:15:47;19.70;1.00
37530;DHT22;23374;52.758;6.872;2022-07-31T03:18:08;19.70;1.00
37530;DHT22;23374;52.758;6.872;2022-07-31T03:20:34;19.60;1.00
37530;DHT22;23374;52.758;6.872;2022-07-31T03:22:55;19.60;1.00
37530;DHT22;23374;52.758;6.872;2022-07-31T03:25:15;19.60;1.00
37530;DHT22;23374;52.758;6.872;2022-07-31T03:27:36;19.60;1.00
37530;DHT22;23374;52.758;6.872;2022-07-31T03:29:56;19.60;1.00
37530;DHT22;23374;52.758;6.872;2022-07-31T03:32:17;19.60;13.00
37530;DHT22;23374;52.758;6.872;2022-07-31T03:34:37;19.60;1.00
37530;DHT22;23374;52.758;6.872;2022-07-31T03:36:58;19.60;1.00
37530;DHT22;23374;52.758;6.872;2022-07-31T03:39:18;19.60;4.90
37530;DHT22;23374;52.758;6.872;2022-07-31T03:41:38;19.60;1.00
37530;DHT22;23374;52.758;6.872;2022-07-31T03:43:59;19.60;52.50
37530;DHT22;23374;52.758;6.872;2022-07-31T03:46:21;19.60;38.80
37530;DHT22;23374;52.758;6.872;2022-07-31T03:48:43;19.60;19.30
37530;DHT22;23374;52.758;6.872;2022-07-31T03:51:05;19.60;18.30
37530;DHT22;23374;52.758;6.872;2022-07-31T03:53:26;19.60;7.30
37530;DHT22;23374;52.758;6.872;2022-07-31T03:55:47;19.60;32.50
37530;DHT22;23374;52.758;6.872;2022-07-31T03:58:09;19.60;73.20
37530;DHT22;23374;52.758;6.872;2022-07-31T04:00:30;19.60;50.60
37530;DHT22;23374;52.758;6.872;2022-07-31T04:02:54;19.60;99.90
37530;DHT22;23374;52.758;6.872;2022-07-31T04:05:15;19.60;99.90
37530;DHT22;23374;52.758;6.872;2022-07-31T04:07:35;19.60;99.90
37530;DHT22;23374;52.758;6.872;2022-07-31T04:09:55;19.50;99.90
37530;DHT22;23374;52.758;6.872;2022-07-31T04:12:16;19.50;99.90
37530;DHT22;23374;52.758;6.872;2022-07-31T04:14:36;19.50;99.90
37530;DHT22;23374;52.758;6.872;2022-07-31T04:16:56;19.50;99.90
37530;DHT22;23374;52.758;6.872;2022-07-31T04:19:17;19.50;99.90
37530;DHT22;23374;52.758;6.872;2022-07-31T04:21:37;19.60;99.90
37530;DHT22;23374;52.758;6.872;2022-07-31T04:23:57;19.60;99.90
37530;DHT22;23374;52.758;6.872;2022-07-31T04:26:17;19.50;99.90
37530;DHT22;23374;52.758;6.872;2022-07-31T04:28:37;19.60;1.00
37530;DHT22;23374;52.758;6.872;2022-07-31T04:30:58;19.60;1.00
37530;DHT22;23374;52.758;6.872;2022-07-31T04:33:18;19.60;1.00
37530;DHT22;23374;52.758;6.872;2022-07-31T04:35:39;19.60;1.00
37530;DHT22;23374;52.758;6.872;2022-07-31T04:37:59;19.60;1.00
37530;DHT22;23374;52.758;6.872;2022-07-31T04:40:20;19.60;1.00
37530;DHT22;23374;52.758;6.872;2022-07-31T04:42:40;19.70;1.00
37530;DHT22;23374;52.758;6.872;2022-07-31T04:45:00;19.70;1.00
37530;DHT22;23374;52.758;6.872;2022-07-31T04:47:20;19.70;1.00
37530;DHT22;23374;52.758;6.872;2022-07-31T04:49:40;19.60;1.00
37530;DHT22;23374;52.758;6.872;2022-07-31T04:52:00;19.60;1.00
37530;DHT22;23374;52.758;6.872;2022-07-31T04:54:21;19.60;1.00
37530;DHT22;23374;52.758;6.872;2022-07-31T04:56:41;19.60;1.00
37530;DHT22;23374;52.758;6.872;2022-07-31T04:59:07;19.60;1.00
37530;DHT22;23374;52.758;6.872;2022-07-31T05:01:27;19.70;1.00
37530;DHT22;23374;52.758;6.872;2022-07-31T05:03:48;19.70;1.00
37530;DHT22;23374;52.758;6.872;2022-07-31T05:06:12;19.70;1.00
37530;DHT22;23374;52.758;6.872;2022-07-31T05:08:32;19.70;1.00
37530;DHT22;23374;52.758;6.872;2022-07-31T05:10:52;19.70;99.90
37530;DHT22;23374;52.758;6.872;2022-07-31T05:13:31;19.70;99.90
37530;DHT22;23374;52.758;6.872;2022-07-31T05:15:52;19.70;99.90
37530;DHT22;23374;52.758;6.872;2022-07-31T05:18:13;19.70;99.90
37530;DHT22;23374;52.758;6.872;2022-07-31T05:20:33;19.60;99.90
37530;DHT22;23374;52.758;6.872;2022-07-31T05:22:53;19.70;99.90
37530;DHT22;23374;52.758;6.872;2022-07-31T05:25:13;19.70;99.90
37530;DHT22;23374;52.758;6.872;2022-07-31T05:27:33;19.70;99.90
37530;DHT22;23374;52.758;6.872;2022-07-31T05:29:53;19.80;99.90
37530;DHT22;23374;52.758;6.872;2022-07-31T05:32:13;19.80;1.00
37530;DHT22;23374;52.758;6.872;2022-07-31T05:34:33;19.80;99.90
37530;DHT22;23374;52.758;6.872;2022-07-31T05:36:53;19.80;99.90
37530;DHT22;23374;52.758;6.872;2022-07-31T05:39:14;19.90;99.90
37530;DHT22;23374;52.758;6.872;2022-07-31T05:41:36;19.90;99.90
37530;DHT22;23374;52.758;6.872;2022-07-31T05:43:57;19.90;99.90
37530;DHT22;23374;52.758;6.872;2022-07-31T05:46:17;20.00;99.90
37530;DHT22;23374;52.758;6.872;2022-07-31T05:48:38;20.00;99.90
37530;DHT22;23374;52.758;6.872;2022-07-31T05:50:58;20.10;99.90
37530;DHT22;23374;52.758;6.872;2022-07-31T05:53:19;20.10;99.90
37530;DHT22;23374;52.758;6.872;2022-07-31T05:55:41;20.10;99.90
37530;DHT22;23374;52.758;6.872;2022-07-31T05:58:01;20.10;1.00
37530;DHT22;23374;52.758;6.872;2022-07-31T06:00:21;20.20;1.00
37530;DHT22;23374;52.758;6.872;2022-07-31T06:02:42;20.20;99.90
37530;DHT22;23374;52.758;6.872;2022-07-31T06:05:03;20.20;1.00
37530;DHT22;23374;52.758;6.872;2022-07-31T06:07:23;20.20;1.00
37530;DHT22;23374;52.758;6.872;2022-07-31T06:09:43;20.30;1.00
37530;DHT22;23374;52.758;6.872;2022-07-31T06:12:04;20.30;1.00
37530;DHT22;23374;52.758;6.872;2022-07-31T06:14:24;20.30;1.00
37530;DHT22;23374;52.758;6.872;2022-07-31T06:16:45;20.30;1.00
37530;DHT22;23374;52.758;6.872;2022-07-31T06:19:06;20.40;1.00
37530;DHT22;23374;52.758;6.872;2022-07-31T06:21:26;20.40;1.00
37530;DHT22;23374;52.758;6.872;2022-07-31T06:23:46;20.40;1.00
37530;DHT22;23374;52.758;6.872;2022-07-31T06:26:07;20.40;1.00
37530;DHT22;23374;52.758;6.872;2022-07-31T06:28:27;20.40;1.00
37530;DHT22;23374;52.758;6.872;2022-07-31T06:30:47;20.40;1.00
37530;DHT22;23374;52.758;6.872;2022-07-31T06:33:07;20.50;1.00
37530;DHT22;23374;52.758;6.872;2022-07-31T06:35:27;20.50;1.00
37530;DHT22;23374;52.758;6.872;2022-07-31T06:37:47;20.50;1.00
37530;DHT22;23374;52.758;6.872;2022-07-31T06:40:08;20.60;1.00
37530;DHT22;23374;52.758;6.872;2022-07-31T06:42:29;20.60;1.00
37530;DHT22;23374;52.758;6.872;2022-07-31T06:44:49;20.60;1.00
37530;DHT22;23374;52.758;6.872;2022-07-31T06:47:09;20.70;1.00
37530;DHT22;23374;52.758;6.872;2022-07-31T06:49:30;20.70;1.00
37530;DHT22;23374;52.758;6.872;2022-07-31T06:51:51;20.80;1.00
37530;DHT22;23374;52.758;6.872;2022-07-31T06:54:11;20.80;1.00
37530;DHT22;23374;52.758;6.872;2022-07-31T06:56:33;20.90;1.00
37530;DHT22;23374;52.758;6.872;2022-07-31T06:58:54;21.00;1.00
37530;DHT22;23374;52.758;6.872;2022-07-31T07:01:15;21.00;1.00
37530;DHT22;23374;52.758;6.872;2022-07-31T07:03:35;21.10;1.00
37530;DHT22;23374;52.758;6.872;2022-07-31T07:05:55;21.10;1.00
37530;DHT22;23374;52.758;6.872;2022-07-31T07:08:15;21.10;1.00
37530;DHT22;23374;52.758;6.872;2022-07-31T07:10:35;21.10;1.00
37530;DHT22;23374;52.758;6.872;2022-07-31T07:12:55;21.20;1.00
37530;DHT22;23374;52.758;6.872;2022-07-31T07:15:15;21.20;1.00
37530;DHT22;23374;52.758;6.872;2022-07-31T07:17:35;21.30;1.00
37530;DHT22;23374;52.758;6.872;2022-07-31T07:19:56;21.30;1.00
37530;DHT22;23374;52.758;6.872;2022-07-31T07:22:16;21.40;1.00
37530;DHT22;23374;52.758;6.872;2022-07-31T07:24:36;21.40;1.00
37530;DHT22;23374;52.758;6.872;2022-07-31T07:26:57;21.50;99.90
37530;DHT22;23374;52.758;6.872;2022-07-31T07:29:17;21.50;99.90
37530;DHT22;23374;52.758;6.872;2022-07-31T07:31:37;21.50;99.90
37530;DHT22;23374;52.758;6.872;2022-07-31T07:33:58;21.60;1.00
37530;DHT22;23374;52.758;6.872;2022-07-31T07:36:19;21.60;99.90
37530;DHT22;23374;52.758;6.872;2022-07-31T07:38:39;21.70;99.90
37530;DHT22;23374;52.758;6.872;2022-07-31T07:40:59;21.70;99.90
37530;DHT22;23374;52.758;6.872;2022-07-31T07:43:19;21.60;99.90
37530;DHT22;23374;52.758;6.872;2022-07-31T07:45:40;21.50;99.90
37530;DHT22;23374;52.758;6.872;2022-07-31T07:48:01;21.50;99.90
37530;DHT22;23374;52.758;6.872;2022-07-31T07:50:22;21.40;99.90
37530;DHT22;23374;52.758;6.872;2022-07-31T07:52:43;21.30;99.90
37530;DHT22;23374;52.758;6.872;2022-07-31T07:55:05;21.20;99.90
37530;DHT22;23374;52.758;6.872;2022-07-31T07:57:26;21.20;99.90
37530;DHT22;23374;52.758;6.872;2022-07-31T07:59:47;21.20;99.90
37530;DHT22;23374;52.758;6.872;2022-07-31T08:02:07;21.20;99.90
37530;DHT22;23374;52.758;6.872;2022-07-31T08:04:27;21.20;99.90
37530;DHT22;23374;52.758;6.872;2022-07-31T08:06:47;21.20;99.90
37530;DHT22;23374;52.758;6.872;2022-07-31T08:09:07;21.30;99.90
37530;DHT22;23374;52.758;6.872;2022-07-31T08:11:28;21.30;99.90
37530;DHT22;23374;52.758;6.872;2022-07-31T08:13:48;21.30;99.90
37530;DHT22;23374;52.758;6.872;2022-07-31T08:16:09;21.40;99.90
37530;DHT22;23374;52.758;6.872;2022-07-31T08:18:29;21.40;99.90
37530;DHT22;23374;52.758;6.872;2022-07-31T08:20:50;21.40;99.90
37530;DHT22;23374;52.758;6.872;2022-07-31T08:23:10;21.40;99.90
37530;DHT22;23374;52.758;6.872;2022-07-31T08:25:32;21.50;99.90
37530;DHT22;23374;52.758;6.872;2022-07-31T08:27:52;21.50;99.90
37530;DHT22;23374;52.758;6.872;2022-07-31T08:30:12;21.50;99.90
37530;DHT22;23374;52.758;6.872;2022-07-31T08:32:32;21.50;99.90
37530;DHT22;23374;52.758;6.872;2022-07-31T08:34:54;21.50;1.00
37530;DHT22;23374;52.758;6.872;2022-07-31T08:37:15;21.50;1.00
37530;DHT22;23374;52.758;6.872;2022-07-31T08:39:38;21.40;1.00
37530;DHT22;23374;52.758;6.872;2022-07-31T08:42:03;21.40;1.00
37530;DHT22;23374;52.758;6.872;2022-07-31T08:44:23;21.40;3.20
37530;DHT22;23374;52.758;6.872;2022-07-31T08:46:44;21.40;99.90
37530;DHT22;23374;52.758;6.872;2022-07-31T08:49:07;21.40;99.90
37530;DHT22;23374;52.758;6.872;2022-07-31T08:51:34;21.30;1.00
37530;DHT22;23374;52.758;6.872;2022-07-31T08:53:55;21.40;1.00
37530;DHT22;23374;52.758;6.872;2022-07-31T08:56:17;21.40;1.00
37530;DHT22;23374;52.758;6.872;2022-07-31T08:58:38;21.40;1.00
37530;DHT22;23374;52.758;6.872;2022-07-31T09:00:58;21.40;1.00
37530;DHT22;23374;52.758;6.872;2022-07-31T09:03:19;21.50;1.00
37530;DHT22;23374;52.758;6.872;2022-07-31T09:05:39;21.60;1.00
37530;DHT22;23374;52.758;6.872;2022-07-31T09:08:01;21.60;99.90
37530;DHT22;23374;52.758;6.872;2022-07-31T09:10:24;21.60;99.90
37530;DHT22;23374;52.758;6.872;2022-07-31T09:12:45;21.60;1.00
37530;DHT22;23374;52.758;6.872;2022-07-31T09:15:22;21.60;99.90
37530;DHT22;23374;52.758;6.872;2022-07-31T09:17:43;21.60;1.00
37530;DHT22;23374;52.758;6.872;2022-07-31T09:20:04;21.60;1.00
37530;DHT22;23374;52.758;6.872;2022-07-31T09:22:27;21.60;1.00
37530;DHT22;23374;52.758;6.872;2022-07-31T09:24:48;21.60;1.00
37530;DHT22;23374;52.758;6.872;2022-07-31T09:27:09;21.60;1.00
37530;DHT22;23374;52.758;6.872;2022-07-31T09:29:43;21.60;1.00
37530;DHT22;23374;52.758;6.872;2022-07-31T09:32:19;21.60;1.00
37530;DHT22;23374;52.758;6.872;2022-07-31T09:34:41;21.70;1.00
37530;DHT22;23374;52.758;6.872;2022-07-31T09:37:15;21.70;1.00
37530;DHT22;23374;52.758;6.872;2022-07-31T09:39:36;21.70;1.00
37530;DHT22;23374;52.758;6.872;2022-07-31T09:41:57;21.70;1.00
37530;DHT22;23374;52.758;6.872;2022-07-31T09:44:17;21.60;1.00
37530;DHT22;23374;52.758;6.872;2022-07-31T09:46:42;21.60;1.00
37530;DHT22;23374;52.758;6.872;2022-07-31T09:49:03;21.60;1.00
37530;DHT22;23374;52.758;6.872;2022-07-31T09:51:23;21.60;1.00
37530;DHT22;23374;52.758;6.872;2022-07-31T09:53:47;21.60;1.00
37530;DHT22;23374;52.758;6.872;2022-07-31T09:56:15;21.50;27.20
37530;DHT22;23374;52.758;6.872;2022-07-31T09:58:35;21.50;9.10
37530;DHT22;23374;52.758;6.872;2022-07-31T10:00:56;21.50;5.40
37530;DHT22;23374;52.758;6.872;2022-07-31T10:03:18;21.50;99.90
37530;DHT22;23374;52.758;6.872;2022-07-31T10:05:41;21.50;99.90
37530;DHT22;23374;52.758;6.872;2022-07-31T10:08:01;21.60;99.90
37530;DHT22;23374;52.758;6.872;2022-07-31T10:10:22;21.60;99.90
37530;DHT22;23374;52.758;6.872;2022-07-31T10:12:48;21.70;99.90
37530;DHT22;23374;52.758;6.872;2022-07-31T10:15:12;21.60;99.90
37530;DHT22;23374;52.758;6.872;2022-07-31T10:17:38;21.70;99.90
37530;DHT22;23374;52.758;6.872;2022-07-31T10:20:06;21.70;99.90
37530;DHT22;23374;52.758;6.872;2022-07-31T10:22:34;21.70;99.90
37530;DHT22;23374;52.758;6.872;2022-07-31T10:25:00;21.70;99.90
37530;DHT22;23374;52.758;6.872;2022-07-31T10:27:20;21.60;1.00
37530;DHT22;23374;52.758;6.872;2022-07-31T10:29:41;21.60;1.00
37530;DHT22;23374;52.758;6.872;2022-07-31T10:32:02;21.60;1.00
37530;DHT22;23374;52.758;6.872;2022-07-31T10:34:22;21.60;1.00
37530;DHT22;23374;52.758;6.872;2022-07-31T10:36:45;21.70;1.00
37530;DHT22;23374;52.758;6.872;2022-07-31T10:40:12;21.70;1.00
37530;DHT22;23374;52.758;6.872;2022-07-31T10:42:45;21.90;1.00
37530;DHT22;23374;52.758;6.872;2022-07-31T10:45:10;22.00;1.00
37530;DHT22;23374;52.758;6.872;2022-07-31T10:47:33;22.10;1.00
37530;DHT22;23374;52.758;6.872;2022-07-31T10:49:53;22.10;1.00
37530;DHT22;23374;52.758;6.872;2022-07-31T10:52:29;22.10;99.90
37530;DHT22;23374;52.758;6.872;2022-07-31T10:54:49;22.20;1.00
37530;DHT22;23374;52.758;6.872;2022-07-31T10:57:21;22.20;1.00
37530;DHT22;23374;52.758;6.872;2022-07-31T10:59:41;22.30;1.00
37530;DHT22;23374;52.758;6.872;2022-07-31T11:02:03;22.30;1.00
37530;DHT22;23374;52.758;6.872;2022-07-31T11:04:29;22.30;1.00
37530;DHT22;23374;52.758;6.872;2022-07-31T11:06:51;22.40;1.00
37530;DHT22;23374;52.758;6.872;2022-07-31T11:09:22;22.40;1.00
37530;DHT22;23374;52.758;6.872;2022-07-31T11:11:42;22.50;1.00
37530;DHT22;23374;52.758;6.872;2022-07-31T11:14:02;22.50;1.00
37530;DHT22;23374;52.758;6.872;2022-07-31T11:16:23;22.60;1.00
37530;DHT22;23374;52.758;6.872;2022-07-31T11:18:43;22.60;99.90
37530;DHT22;23374;52.758;6.872;2022-07-31T11:21:08;22.60;99.90
37530;DHT22;23374;52.758;6.872;2022-07-31T11:23:30;22.50;1.00
37530;DHT22;23374;52.758;6.872;2022-07-31T11:25:51;22.60;1.00
37530;DHT22;23374;52.758;6.872;2022-07-31T11:28:17;22.50;99.90
37530;DHT22;23374;52.758;6.872;2022-07-31T11:30:58;22.40;27.20
37530;DHT22;23374;52.758;6.872;2022-07-31T11:33:50;22.30;99.90
37530;DHT22;23374;52.758;6.872;2022-07-31T11:36:20;22.20;99.90
37530;DHT22;23374;52.758;6.872;2022-07-31T11:38:44;22.20;1.00
37530;DHT22;23374;52.758;6.872;2022-07-31T11:41:05;22.10;20.40
37530;DHT22;23374;52.758;6.872;2022-07-31T11:43:25;22.10;99.90
37530;DHT22;23374;52.758;6.872;2022-07-31T11:45:51;22.10;99.90
37530;DHT22;23374;52.758;6.872;2022-07-31T11:48:14;22.10;99.90
37530;DHT22;23374;52.758;6.872;2022-07-31T11:50:42;22.10;1.00
37530;DHT22;23374;52.758;6.872;2022-07-31T11:53:03;22.00;1.00
37530;DHT22;23374;52.758;6.872;2022-07-31T11:55:25;21.90;1.00
37530;DHT22;23374;52.758;6.872;2022-07-31T11:57:47;21.90;46.50
37530;DHT22;23374;52.758;6.872;2022-07-31T12:00:11;21.70;99.90
37530;DHT22;23374;52.758;6.872;2022-07-31T12:02:31;21.50;1.00
37530;DHT22;23374;52.758;6.872;2022-07-31T12:04:52;21.30;1.00
37530;DHT22;23374;52.758;6.872;2022-07-31T12:07:13;21.10;1.00
37530;DHT22;23374;52.758;6.872;2022-07-31T12:09:35;21.00;37.30
37530;DHT22;23374;52.758;6.872;2022-07-31T12:11:56;20.80;99.90
37530;DHT22;23374;52.758;6.872;2022-07-31T12:14:37;20.70;1.00
37530;DHT22;23374;52.758;6.872;2022-07-31T12:16:58;20.60;1.00
37530;DHT22;23374;52.758;6.872;2022-07-31T12:19:26;20.40;1.00
37530;DHT22;23374;52.758;6.872;2022-07-31T12:21:46;20.40;1.00
37530;DHT22;23374;52.758;6.872;2022-07-31T12:24:13;20.30;1.00
37530;DHT22;23374;52.758;6.872;2022-07-31T12:26:34;20.20;99.90
37530;DHT22;23374;52.758;6.872;2022-07-31T12:29:08;20.10;99.90
37530;DHT22;23374;52.758;6.872;2022-07-31T12:31:46;20.00;1.00
37530;DHT22;23374;52.758;6.872;2022-07-31T12:34:07;20.00;1.00
37530;DHT22;23374;52.758;6.872;2022-07-31T12:36:27;19.90;1.00
37530;DHT22;23374;52.758;6.872;2022-07-31T12:38:59;20.00;1.00
37530;DHT22;23374;52.758;6.872;2022-07-31T12:41:19;19.90;1.00
37530;DHT22;23374;52.758;6.872;2022-07-31T12:43:40;19.90;1.00
37530;DHT22;23374;52.758;6.872;2022-07-31T12:46:00;20.00;1.00
37530;DHT22;23374;52.758;6.872;2022-07-31T12:48:27;20.00;1.00
37530;DHT22;23374;52.758;6.872;2022-07-31T12:50:47;20.10;7.90
37530;DHT22;23374;52.758;6.872;2022-07-31T12:53:08;20.20;35.50
37530;DHT22;23374;52.758;6.872;2022-07-31T12:55:30;20.20;1.00
37530;DHT22;23374;52.758;6.872;2022-07-31T12:57:51;20.20;9.20
37530;DHT22;23374;52.758;6.872;2022-07-31T13:00:12;20.20;1.00
37530;DHT22;23374;52.758;6.872;2022-07-31T13:02:32;20.20;18.40
37530;DHT22;23374;52.758;6.872;2022-07-31T13:04:53;20.20;1.80
37530;DHT22;23374;52.758;6.872;2022-07-31T13:07:13;20.20;1.00
37530;DHT22;23374;52.758;6.872;2022-07-31T13:09:36;20.20;67.50
37530;DHT22;23374;52.758;6.872;2022-07-31T13:11:56;20.20;75.70
37530;DHT22;23374;52.758;6.872;2022-07-31T13:14:20;20.20;99.90
37530;DHT22;23374;52.758;6.872;2022-07-31T13:16:40;20.10;92.30
37530;DHT22;23374;52.758;6.872;2022-07-31T13:19:00;20.20;99.90
37530;DHT22;23374;52.758;6.872;2022-07-31T13:21:20;20.20;99.90
37530;DHT22;23374;52.758;6.872;2022-07-31T13:23:41;20.20;99.90
37530;DHT22;23374;52.758;6.872;2022-07-31T13:26:01;20.10;99.90
37530;DHT22;23374;52.758;6.872;2022-07-31T13:28:22;20.10;99.90
37530;DHT22;23374;52.758;6.872;2022-07-31T13:30:43;20.10;99.90
37530;DHT22;23374;52.758;6.872;2022-07-31T13:33:03;20.00;99.90
37530;DHT22;23374;52.758;6.872;2022-07-31T13:35:23;20.00;99.90
37530;DHT22;23374;52.758;6.872;2022-07-31T13:37:48;20.00;99.90
37530;DHT22;23374;52.758;6.872;2022-07-31T13:40:08;20.00;99.90
37530;DHT22;23374;52.758;6.872;2022-07-31T13:42:29;20.00;99.90
37530;DHT22;23374;52.758;6.872;2022-07-31T13:44:49;20.00;99.90
37530;DHT22;23374;52.758;6.872;2022-07-31T13:47:09;20.00;99.90
37530;DHT22;23374;52.758;6.872;2022-07-31T13:49:29;19.90;99.90
37530;DHT22;23374;52.758;6.872;2022-07-31T13:51:51;19.90;99.90
37530;DHT22;23374;52.758;6.872;2022-07-31T13:54:11;19.80;99.90
37530;DHT22;23374;52.758;6.872;2022-07-31T13:56:32;19.90;99.90
37530;DHT22;23374;52.758;6.872;2022-07-31T13:58:54;19.90;99.90
37530;DHT22;23374;52.758;6.872;2022-07-31T14:01:14;19.80;99.90
37530;DHT22;23374;52.758;6.872;2022-07-31T14:03:34;19.80;99.90
37530;DHT22;23374;52.758;6.872;2022-07-31T14:05:54;19.80;99.90
37530;DHT22;23374;52.758;6.872;2022-07-31T14:08:16;19.80;99.90
37530;DHT22;23374;52.758;6.872;2022-07-31T14:10:37;19.80;99.90
37530;DHT22;23374;52.758;6.872;2022-07-31T14:12:57;19.90;99.90
37530;DHT22;23374;52.758;6.872;2022-07-31T14:15:17;19.90;99.90
37530;DHT22;23374;52.758;6.872;2022-07-31T14:17:38;19.90;99.90
37530;DHT22;23374;52.758;6.872;2022-07-31T14:19:58;19.90;99.90
37530;DHT22;23374;52.758;6.872;2022-07-31T14:22:19;19.90;99.90
37530;DHT22;23374;52.758;6.872;2022-07-31T14:24:39;19.90;99.90
37530;DHT22;23374;52.758;6.872;2022-07-31T14:27:00;19.90;99.90
37530;DHT22;23374;52.758;6.872;2022-07-31T14:29:20;19.90;99.90
37530;DHT22;23374;52.758;6.872;2022-07-31T14:31:40;20.00;99.90
37530;DHT22;23374;52.758;6.872;2022-07-31T14:34:00;20.00;99.90
37530;DHT22;23374;52.758;6.872;2022-07-31T14:36:21;20.00;99.90
37530;DHT22;23374;52.758;6.872;2022-07-31T14:38:41;20.10;99.90
37530;DHT22;23374;52.758;6.872;2022-07-31T14:41:01;20.00;99.90
37530;DHT22;23374;52.758;6.872;2022-07-31T14:43:22;20.10;99.90
37530;DHT22;23374;52.758;6.872;2022-07-31T14:45:43;20.10;99.90
37530;DHT22;23374;52.758;6.872;2022-07-31T14:48:04;20.10;99.90
37530;DHT22;23374;52.758;6.872;2022-07-31T14:50:24;20.10;99.90
37530;DHT22;23374;52.758;6.872;2022-07-31T14:52:45;20.10;99.90
37530;DHT22;23374;52.758;6.872;2022-07-31T14:55:06;20.10;99.90
37530;DHT22;23374;52.758;6.872;2022-07-31T14:57:27;20.10;99.90
37530;DHT22;23374;52.758;6.872;2022-07-31T14:59:50;20.10;99.90
37530;DHT22;23374;52.758;6.872;2022-07-31T15:02:10;20.10;99.90
37530;DHT22;23374;52.758;6.872;2022-07-31T15:04:31;20.10;99.90
37530;DHT22;23374;52.758;6.872;2022-07-31T15:06:51;20.10;99.90
37530;DHT22;23374;52.758;6.872;2022-07-31T15:09:12;20.20;99.90
37530;DHT22;23374;52.758;6.872;2022-07-31T15:11:33;20.20;99.90
37530;DHT22;23374;52.758;6.872;2022-07-31T15:13:53;20.20;99.90